createdAt,value
2017-11-18T00:02:05.269Z,3.30
2017-11-18T00:04:35.261Z,4.27
2017-11-18T00:07:05.140Z,2.87
2017-11-18T00:09:35.053Z,2.90
2017-11-18T00:12:04.927Z,4.67
2017-11-18T00:14:34.876Z,3.30
2017-11-18T00:17:04.781Z,2.70
2017-11-18T00:19:34.694Z,4.23
2017-11-18T00:22:04.709Z,4.00
2017-11-18T00:24:34.633Z,3.80
2017-11-18T00:27:04.541Z,3.50
2017-11-18T00:29:34.465Z,4.50
2017-11-18T00:32:04.340Z,3.20
2017-11-18T00:34:34.226Z,4.10
2017-11-18T00:37:04.187Z,3.90
2017-11-18T00:39:34.197Z,3.83
2017-11-18T00:42:04.103Z,4.13
2017-11-18T00:44:33.985Z,3.73
2017-11-18T00:47:03.911Z,4.17
2017-11-18T00:49:33.795Z,4.03
2017-11-18T00:52:03.690Z,4.40
2017-11-18T00:54:33.577Z,3.60
2017-11-18T00:57:03.540Z,3.87
2017-11-18T00:59:33.421Z,5.50
2017-11-18T01:02:03.361Z,3.20
2017-11-18T01:04:33.256Z,5.30
2017-11-18T01:07:03.190Z,3.90
2017-11-18T01:09:33.083Z,3.40
2017-11-18T01:12:02.978Z,4.30
2017-11-18T01:14:32.947Z,3.70
2017-11-18T01:17:02.819Z,3.93
2017-11-18T01:19:32.741Z,3.73
2017-11-18T01:22:02.699Z,3.93
2017-11-18T01:24:32.620Z,4.40
2017-11-18T01:27:02.507Z,3.70
2017-11-18T01:29:32.405Z,5.07
2017-11-18T01:32:02.390Z,3.87
2017-11-18T01:34:32.291Z,3.67
2017-11-18T01:37:02.192Z,4.83
2017-11-18T01:39:32.075Z,4.57
2017-11-18T01:42:01.998Z,4.60
2017-11-18T01:44:31.894Z,4.67
2017-11-18T01:47:01.880Z,4.30
2017-11-18T01:49:31.750Z,3.77
2017-11-18T01:52:01.705Z,4.07
2017-11-18T01:54:31.625Z,3.97
2017-11-18T01:57:01.514Z,5.27
2017-11-18T01:59:31.401Z,3.87
2017-11-18T02:02:01.263Z,4.60
2017-11-18T02:04:31.141Z,4.20
2017-11-18T02:07:01.015Z,5.07
2017-11-18T02:09:30.927Z,6.40
2017-11-18T02:12:00.806Z,4.67
2017-11-18T02:14:30.760Z,4.90
2017-11-18T02:17:00.633Z,5.40
2017-11-18T02:19:30.540Z,4.43
2017-11-18T02:22:00.565Z,4.53
2017-11-18T02:24:30.416Z,3.83
2017-11-18T02:27:00.303Z,4.33
2017-11-18T02:29:30.192Z,5.10
2017-11-18T02:32:00.091Z,4.87
2017-11-18T02:34:29.961Z,4.87
2017-11-18T02:37:00.760Z,5.40
2017-11-18T02:39:30.620Z,5.07
2017-11-18T02:42:00.518Z,4.50
2017-11-18T02:44:30.368Z,6.00
2017-11-18T02:47:00.214Z,5.00
2017-11-18T02:49:30.096Z,4.90
2017-11-18T02:51:59.951Z,5.37
2017-11-18T02:54:29.829Z,4.80
2017-11-18T02:56:59.676Z,4.67
2017-11-18T02:59:29.582Z,4.53
2017-11-18T03:01:59.447Z,4.83
2017-11-18T03:04:29.337Z,4.33
2017-11-18T03:06:59.224Z,5.80
2017-11-18T03:09:29.090Z,4.33
2017-11-18T03:11:59.012Z,4.80
2017-11-18T03:14:28.895Z,4.87
2017-11-18T03:16:58.809Z,4.70
2017-11-18T03:19:28.690Z,5.60
2017-11-18T03:21:58.593Z,5.47
2017-11-18T03:24:28.470Z,4.67
2017-11-18T03:26:58.362Z,5.40
2017-11-18T03:29:28.237Z,4.90
2017-11-18T03:31:58.171Z,5.30
2017-11-18T03:34:28.095Z,5.00
2017-11-18T03:36:57.978Z,5.67
2017-11-18T03:39:27.889Z,5.80
2017-11-18T03:41:57.779Z,5.60
2017-11-18T03:44:27.676Z,5.07
2017-11-18T03:46:57.588Z,5.97
2017-11-18T03:49:27.472Z,5.80
2017-11-18T03:51:57.359Z,5.23
2017-11-18T03:54:27.250Z,5.80
2017-11-18T03:56:57.326Z,6.37
2017-11-18T03:59:27.190Z,5.13
2017-11-18T04:01:57.099Z,5.50
2017-11-18T04:04:26.963Z,6.20
2017-11-18T04:06:56.892Z,6.27
2017-11-18T04:09:26.754Z,5.10
2017-11-18T04:11:56.665Z,4.70
2017-11-18T04:14:26.602Z,5.07
2017-11-18T04:16:56.495Z,5.43
2017-11-18T04:19:26.449Z,5.30
2017-11-18T04:21:56.323Z,6.30
2017-11-18T04:24:26.328Z,5.23
2017-11-18T04:26:56.212Z,6.43
2017-11-18T04:29:26.126Z,6.23
2017-11-18T04:31:55.985Z,5.50
2017-11-18T04:34:25.940Z,5.40
2017-11-18T04:36:55.891Z,6.67
2017-11-18T04:39:25.790Z,6.67
2017-11-18T04:41:55.662Z,6.57
2017-11-18T04:44:25.571Z,6.77
2017-11-18T04:46:55.457Z,6.00
2017-11-18T04:49:25.331Z,5.73
2017-11-18T04:51:55.190Z,5.13
2017-11-18T04:54:25.054Z,6.23
2017-11-18T04:56:54.947Z,5.73
2017-11-18T04:59:24.816Z,5.23
2017-11-18T05:01:54.723Z,5.53
2017-11-18T05:04:24.596Z,6.20
2017-11-18T05:06:54.486Z,3.90
2017-11-18T05:09:24.351Z,5.93
2017-11-18T05:11:54.264Z,5.60
2017-11-18T05:14:24.187Z,6.20
2017-11-18T05:16:54.077Z,5.40
2017-11-18T05:19:24.027Z,5.60
2017-11-18T05:21:53.895Z,5.60
2017-11-18T05:24:23.798Z,6.73
2017-11-18T05:26:53.723Z,5.70
2017-11-18T05:29:23.631Z,5.63
2017-11-18T05:31:53.520Z,6.23
2017-11-18T05:34:23.425Z,5.30
2017-11-18T05:36:53.295Z,5.97
2017-11-18T05:39:23.230Z,5.97
2017-11-18T05:41:53.145Z,5.67
2017-11-18T05:44:23.026Z,4.50
2017-11-18T05:46:52.954Z,5.80
2017-11-18T05:49:22.837Z,6.90
2017-11-18T05:51:52.758Z,6.17
2017-11-18T05:54:22.640Z,6.37
2017-11-18T05:56:52.547Z,5.60
2017-11-18T05:59:22.429Z,6.37
2017-11-18T06:01:52.290Z,5.60
2017-11-18T06:04:22.176Z,6.60
2017-11-18T06:06:52.071Z,7.50
2017-11-18T06:09:22.047Z,7.13
2017-11-18T06:11:51.984Z,6.30
2017-11-18T06:14:21.916Z,8.00
2017-11-18T06:16:51.781Z,6.03
2017-11-18T06:19:21.675Z,5.77
2017-11-18T06:21:51.778Z,7.10
2017-11-18T06:24:21.672Z,7.23
2017-11-18T06:26:51.578Z,7.67
2017-11-18T06:29:21.508Z,7.23
2017-11-18T06:31:51.463Z,6.80
2017-11-18T06:34:21.391Z,7.20
2017-11-18T06:36:51.602Z,6.70
2017-11-18T06:39:22.298Z,6.87
2017-11-18T06:41:55.020Z,7.90
2017-11-18T06:44:24.901Z,6.00
2017-11-18T06:46:54.808Z,8.03
2017-11-18T06:49:24.678Z,8.53
2017-11-18T06:51:55.542Z,6.90
2017-11-18T06:54:25.423Z,7.97
2017-11-18T06:56:55.374Z,7.40
2017-11-18T06:59:25.246Z,8.83
2017-11-18T07:01:55.229Z,7.80
2017-11-18T07:04:25.114Z,8.10
2017-11-18T07:06:55.079Z,9.70
2017-11-18T07:09:24.953Z,7.27
2017-11-18T07:11:54.883Z,7.70
2017-11-18T07:14:24.770Z,7.20
2017-11-18T07:16:54.675Z,7.60
2017-11-18T07:19:24.569Z,8.30
2017-11-18T07:21:54.532Z,6.30
2017-11-18T07:24:24.416Z,7.87
2017-11-18T07:26:54.296Z,8.00
2017-11-18T07:29:24.223Z,7.10
2017-11-18T07:31:54.154Z,7.23
2017-11-18T07:34:24.071Z,7.97
2017-11-18T07:36:53.950Z,8.53
2017-11-18T07:39:23.877Z,8.47
2017-11-18T07:41:53.810Z,6.50
2017-11-18T07:44:23.727Z,5.93
2017-11-18T07:46:53.633Z,7.10
2017-11-18T07:49:23.539Z,7.00
2017-11-18T07:51:53.535Z,7.17
2017-11-18T07:54:23.482Z,7.60
2017-11-18T07:56:53.400Z,6.90
2017-11-18T07:59:23.312Z,7.27
2017-11-18T08:01:53.279Z,6.67
2017-11-18T08:04:23.367Z,6.47
2017-11-18T08:06:53.276Z,7.63
2017-11-18T08:09:23.167Z,6.70
2017-11-18T08:11:53.082Z,6.60
2017-11-18T08:14:22.952Z,6.50
2017-11-18T08:16:52.970Z,5.67
2017-11-18T08:19:22.885Z,5.77
2017-11-18T08:21:52.794Z,6.77
2017-11-18T08:24:22.709Z,7.07
2017-11-18T08:26:52.627Z,7.13
2017-11-18T08:29:22.504Z,5.20
2017-11-18T08:31:52.407Z,5.87
2017-11-18T08:34:22.299Z,5.00
2017-11-18T08:36:52.154Z,5.03
2017-11-18T08:39:22.161Z,5.33
2017-11-18T08:41:52.055Z,6.60
2017-11-18T08:44:21.956Z,4.37
2017-11-18T08:46:51.868Z,5.03
2017-11-18T08:49:21.803Z,6.00
2017-11-18T08:51:51.680Z,5.03
2017-11-18T08:54:21.592Z,4.70
2017-11-18T08:56:51.488Z,4.33
2017-11-18T08:59:21.403Z,3.97
2017-11-18T09:01:51.284Z,4.07
2017-11-18T09:04:21.165Z,3.93
2017-11-18T09:06:51.081Z,4.10
2017-11-18T09:09:20.968Z,5.43
2017-11-18T09:11:50.886Z,5.07
2017-11-18T09:14:20.771Z,3.93
2017-11-18T09:16:50.695Z,5.17
2017-11-18T09:19:20.569Z,4.80
2017-11-18T09:21:50.459Z,4.33
2017-11-18T09:24:20.361Z,4.80
2017-11-18T09:26:50.262Z,5.27
2017-11-18T09:29:20.202Z,4.50
2017-11-18T09:31:50.094Z,5.00
2017-11-18T09:34:20.077Z,3.90
2017-11-18T09:36:49.939Z,3.57
2017-11-18T09:39:19.875Z,3.90
2017-11-18T09:41:49.755Z,4.80
2017-11-18T09:44:19.655Z,4.93
2017-11-18T09:46:49.530Z,4.70
2017-11-18T09:49:19.429Z,4.23
2017-11-18T09:51:49.287Z,3.87
2017-11-18T09:54:19.172Z,4.93
2017-11-18T09:56:49.074Z,4.70
2017-11-18T09:59:18.952Z,4.93
2017-11-18T10:01:48.865Z,4.90
2017-11-18T10:04:18.751Z,4.60
2017-11-18T10:06:48.667Z,4.20
2017-11-18T10:09:18.572Z,4.43
2017-11-18T10:11:48.461Z,4.80
2017-11-18T10:14:18.335Z,4.00
2017-11-18T10:16:48.345Z,4.40
2017-11-18T10:19:18.346Z,4.17
2017-11-18T10:21:48.240Z,4.20
2017-11-18T10:24:18.102Z,3.20
2017-11-18T10:26:48.021Z,4.13
2017-11-18T10:29:17.921Z,3.90
2017-11-18T10:31:47.847Z,3.80
2017-11-18T10:34:17.755Z,3.93
2017-11-18T10:36:47.821Z,4.33
2017-11-18T10:39:17.707Z,3.93
2017-11-18T10:41:47.599Z,4.30
2017-11-18T10:44:17.585Z,4.50
2017-11-18T10:46:47.451Z,3.50
2017-11-18T10:49:17.370Z,4.20
2017-11-18T10:51:47.249Z,3.77
2017-11-18T10:54:17.118Z,6.83
2017-11-18T10:56:47.034Z,6.03
2017-11-18T10:59:16.939Z,5.13
2017-11-18T11:01:46.947Z,5.43
2017-11-18T11:04:16.798Z,4.73
2017-11-18T11:06:46.730Z,5.77
2017-11-18T11:09:16.636Z,5.00
2017-11-18T11:11:46.731Z,4.17
2017-11-18T11:14:16.635Z,3.40
2017-11-18T11:16:46.520Z,3.70
2017-11-18T11:19:16.398Z,4.13
2017-11-18T11:21:46.284Z,2.17
2017-11-18T11:24:16.206Z,1.97
2017-11-18T11:26:46.109Z,1.30
2017-11-18T11:29:16.011Z,1.40
2017-11-18T11:31:45.930Z,0.73
2017-11-18T11:34:16.592Z,0.50
2017-11-18T11:36:46.549Z,0.60
2017-11-18T11:39:16.456Z,0.80
2017-11-18T11:41:46.340Z,0.50
2017-11-18T11:44:16.348Z,0.30
2017-11-18T11:46:46.254Z,0.63
2017-11-18T11:49:16.137Z,0.50
2017-11-18T11:51:46.051Z,0.63
2017-11-18T11:54:15.949Z,0.50
2017-11-18T11:56:45.819Z,0.60
2017-11-18T11:59:15.733Z,0.50
2017-11-18T12:01:45.616Z,0.70
2017-11-18T12:04:15.548Z,1.07
2017-11-18T12:06:45.443Z,0.80
2017-11-18T12:09:15.322Z,0.73
2017-11-18T12:11:45.200Z,0.60
2017-11-18T12:14:15.068Z,1.10
2017-11-18T12:16:45.073Z,0.90
2017-11-18T12:19:14.952Z,0.90
2017-11-18T12:21:44.836Z,0.90
2017-11-18T12:24:14.760Z,0.80
2017-11-18T12:26:44.801Z,0.60
2017-11-18T12:29:14.653Z,0.50
2017-11-18T12:31:44.575Z,0.70
2017-11-18T12:34:18.686Z,0.77
2017-11-18T12:36:48.630Z,0.90
2017-11-18T12:39:18.663Z,0.70
2017-11-18T12:41:48.623Z,0.70
2017-11-18T12:44:18.555Z,0.70
2017-11-18T12:46:48.565Z,0.60
2017-11-18T12:49:19.366Z,0.83
2017-11-18T13:01:04.189Z,0.80
2017-11-18T13:03:34.068Z,0.87
2017-11-18T13:06:04.014Z,1.10
2017-11-18T13:08:33.897Z,2.27
2017-11-18T13:11:03.807Z,2.10
2017-11-18T13:13:33.711Z,3.40
2017-11-18T13:16:03.899Z,3.30
2017-11-18T13:18:33.852Z,2.40
2017-11-18T13:21:03.911Z,0.97
2017-11-18T13:23:33.815Z,2.00
2017-11-18T13:26:03.856Z,1.50
2017-11-18T13:28:33.750Z,1.20
2017-11-18T13:31:03.675Z,1.70
2017-11-18T13:33:33.783Z,1.20
2017-11-18T13:36:03.784Z,1.23
2017-11-18T13:38:33.712Z,1.53
2017-11-18T13:41:03.616Z,1.50
2017-11-18T13:43:33.537Z,1.10
2017-11-18T13:46:03.468Z,1.13
2017-11-18T13:48:33.373Z,1.00
2017-11-18T13:51:03.329Z,1.37
2017-11-18T13:53:33.264Z,1.30
2017-11-18T13:56:03.591Z,1.70
2017-11-18T13:58:33.498Z,1.87
2017-11-18T14:01:03.479Z,1.80
2017-11-18T14:03:33.394Z,2.00
2017-11-18T14:06:03.453Z,2.10
2017-11-18T14:08:33.419Z,2.10
2017-11-18T14:11:03.305Z,1.50
2017-11-18T14:13:33.205Z,1.30
2017-11-18T14:16:03.171Z,1.40
2017-11-18T14:18:33.110Z,1.17
2017-11-18T14:21:02.998Z,0.87
2017-11-18T14:23:32.920Z,1.20
2017-11-18T14:26:02.783Z,2.03
2017-11-18T14:28:32.721Z,2.13
2017-11-18T14:31:02.635Z,2.00
2017-11-18T14:33:32.543Z,1.80
2017-11-18T14:36:02.453Z,1.60
2017-11-18T14:38:32.345Z,1.57
2017-11-18T14:41:02.267Z,1.90
2017-11-18T14:43:32.147Z,1.70
2017-11-18T14:46:02.058Z,1.80
2017-11-18T14:48:31.942Z,2.30
2017-11-18T14:51:01.858Z,1.20
2017-11-18T14:53:31.740Z,1.80
2017-11-18T14:56:01.642Z,2.80
2017-11-18T14:58:31.542Z,2.07
2017-11-18T15:01:01.570Z,2.40
2017-11-18T15:03:31.587Z,2.17
2017-11-18T15:06:01.452Z,1.90
2017-11-18T15:08:31.386Z,1.40
2017-11-18T15:11:01.336Z,1.90
2017-11-18T15:13:31.242Z,2.07
2017-11-18T15:16:05.724Z,2.37
2017-11-18T15:18:41.322Z,1.90
2017-11-18T15:24:21.847Z,2.43
2017-11-18T15:26:57.436Z,3.17
2017-11-18T15:29:43.083Z,2.20
2017-11-18T15:32:24.734Z,1.50
2017-11-18T15:34:57.261Z,2.53
2017-11-18T15:37:32.631Z,2.40
2017-11-18T15:40:02.517Z,2.03
2017-11-18T15:42:32.367Z,2.07
2017-11-18T15:45:02.390Z,2.73
2017-11-18T15:47:36.719Z,2.83
2017-11-18T15:50:12.304Z,3.67
2017-11-18T15:55:57.032Z,2.53
2017-11-18T15:58:36.831Z,2.80
2017-11-18T16:01:12.301Z,3.30
2017-11-18T16:06:49.643Z,2.30
2017-11-18T16:09:19.672Z,2.90
2017-11-18T16:11:49.547Z,2.13
2017-11-18T16:14:19.442Z,2.37
2017-11-18T16:16:49.346Z,2.37
2017-11-18T16:19:19.268Z,2.20
2017-11-18T16:21:49.155Z,2.40
2017-11-18T16:24:19.129Z,2.43
2017-11-18T16:26:48.975Z,2.70
2017-11-18T16:29:18.889Z,2.57
2017-11-18T16:31:48.917Z,2.70
2017-11-18T16:34:18.836Z,2.40
2017-11-18T16:36:48.741Z,2.30
2017-11-18T16:39:18.687Z,1.90
2017-11-18T16:41:48.576Z,2.20
2017-11-18T16:44:18.460Z,2.60
2017-11-18T16:46:48.907Z,2.50
2017-11-18T16:49:18.829Z,3.60
2017-11-18T16:51:48.727Z,3.10
2017-11-18T16:54:18.609Z,3.03
2017-11-18T16:56:48.497Z,3.10
2017-11-18T16:59:18.417Z,2.87
2017-11-18T17:01:48.820Z,3.00
2017-11-18T17:04:18.747Z,3.00
2017-11-18T17:06:48.665Z,2.07
2017-11-18T17:09:18.572Z,2.93
2017-11-18T17:11:48.485Z,2.93
2017-11-18T17:14:18.345Z,2.50
2017-11-18T17:16:48.276Z,3.53
2017-11-18T17:19:18.201Z,3.20
2017-11-18T17:21:48.166Z,4.20
2017-11-18T17:24:18.036Z,2.93
2017-11-18T17:26:47.975Z,3.60
2017-11-18T17:29:17.867Z,3.90
2017-11-18T17:31:47.775Z,2.90
2017-11-18T17:34:17.696Z,4.80
2017-11-18T17:36:47.604Z,3.07
2017-11-18T17:39:17.530Z,6.00
2017-11-18T17:41:47.439Z,4.73
2017-11-18T17:44:17.305Z,3.03
2017-11-18T17:46:47.177Z,4.00
2017-11-18T17:49:17.171Z,2.60
2017-11-18T17:51:47.084Z,3.40
2017-11-18T17:54:16.994Z,3.10
2017-11-18T17:56:46.919Z,3.50
2017-11-18T17:59:16.842Z,2.83
2017-11-18T18:01:46.735Z,3.20
2017-11-18T18:04:17.469Z,3.50
2017-11-18T18:06:47.391Z,2.90
2017-11-18T18:09:17.346Z,4.10
2017-11-18T18:11:47.204Z,3.77
2017-11-18T18:14:17.131Z,3.13
2017-11-18T18:16:47.151Z,3.50
2017-11-18T18:19:17.084Z,3.97
2017-11-18T18:21:47.004Z,3.53
2017-11-18T18:24:16.978Z,3.93
2017-11-18T18:26:46.893Z,3.70
2017-11-18T18:29:16.840Z,4.23
2017-11-18T18:31:46.783Z,4.17
2017-11-18T18:34:16.707Z,4.57
2017-11-18T18:36:46.600Z,2.50
2017-11-18T18:39:16.553Z,3.57
2017-11-18T18:41:46.441Z,3.33
2017-11-18T18:44:16.390Z,4.40
2017-11-18T18:46:46.275Z,4.37
2017-11-18T18:49:16.142Z,3.70
2017-11-18T18:51:46.061Z,3.57
2017-11-18T18:54:15.971Z,3.80
2017-11-18T18:56:45.888Z,3.60
2017-11-18T18:59:15.802Z,3.30
2017-11-18T19:01:45.758Z,3.33
2017-11-18T19:04:16.512Z,4.10
2017-11-18T19:06:46.439Z,3.60
2017-11-18T19:09:16.317Z,3.57
2017-11-18T19:11:46.264Z,4.80
2017-11-18T19:14:16.115Z,3.70
2017-11-18T19:16:46.155Z,5.23
2017-11-18T19:19:16.068Z,3.20
2017-11-18T19:21:45.995Z,4.00
2017-11-18T19:24:15.925Z,2.60
2017-11-18T19:26:45.862Z,3.90
2017-11-18T19:29:15.816Z,4.03
2017-11-18T19:31:45.720Z,3.77
2017-11-18T19:34:15.825Z,3.80
2017-11-18T19:36:45.753Z,3.20
2017-11-18T19:39:15.642Z,3.23
2017-11-18T19:41:45.544Z,2.87
2017-11-18T19:44:15.446Z,2.93
2017-11-18T19:46:45.333Z,2.83
2017-11-18T19:49:15.253Z,2.43
2017-11-18T19:51:45.141Z,2.87
2017-11-18T19:54:15.026Z,2.90
2017-11-18T19:56:44.965Z,2.20
2017-11-18T19:59:14.878Z,2.40
2017-11-18T20:01:44.767Z,2.60
2017-11-18T20:04:14.699Z,3.57
2017-11-18T20:06:44.619Z,2.93
2017-11-18T20:09:14.528Z,2.67
2017-11-18T20:11:44.441Z,2.00
2017-11-18T20:14:14.333Z,2.90
2017-11-18T20:16:44.279Z,2.80
2017-11-18T20:19:14.152Z,1.47
2017-11-18T20:21:44.151Z,2.67
2017-11-18T20:24:14.064Z,2.47
2017-11-18T20:26:43.982Z,2.00
2017-11-18T20:29:13.900Z,1.70
2017-11-18T20:31:43.848Z,2.37
2017-11-18T20:34:13.734Z,1.73
2017-11-18T20:36:43.697Z,1.97
2017-11-18T20:39:13.581Z,3.00
2017-11-18T20:41:43.463Z,2.27
2017-11-18T20:44:13.376Z,1.40
2017-11-18T20:46:43.292Z,1.90
2017-11-18T20:49:13.169Z,2.03
2017-11-18T20:51:43.102Z,2.60
2017-11-18T20:54:13.064Z,2.60
2017-11-18T20:56:42.959Z,3.10
2017-11-18T20:59:12.870Z,1.93
2017-11-18T21:01:42.817Z,2.83
2017-11-18T21:04:12.907Z,2.50
2017-11-18T21:06:42.918Z,1.60
2017-11-18T21:09:12.839Z,2.30
2017-11-18T21:11:42.736Z,2.30
2017-11-18T21:14:12.724Z,2.10
2017-11-18T21:16:42.714Z,2.67
2017-11-18T21:19:12.689Z,1.90
2017-11-18T21:21:42.611Z,4.50
2017-11-18T21:24:12.584Z,2.13
2017-11-18T21:26:42.490Z,1.87
2017-11-18T21:29:12.398Z,1.67
2017-11-18T21:31:42.312Z,1.87
2017-11-18T21:34:12.486Z,2.07
2017-11-18T21:36:42.421Z,1.73
2017-11-18T21:39:12.311Z,1.27
2017-11-18T21:41:42.279Z,1.73
2017-11-18T21:44:12.284Z,0.97
2017-11-18T21:46:42.206Z,1.27
2017-11-18T21:49:12.215Z,1.10
2017-11-18T21:51:42.135Z,1.43
2017-11-18T21:54:12.049Z,1.10
2017-11-18T21:56:41.996Z,1.03
2017-11-18T21:59:11.900Z,1.53
2017-11-18T22:01:41.809Z,1.63
2017-11-18T22:04:11.755Z,1.63
2017-11-18T22:06:41.658Z,1.40
2017-11-18T22:09:11.548Z,2.37
2017-11-18T22:11:41.498Z,1.23
2017-11-18T22:14:11.384Z,1.73
2017-11-18T22:16:41.263Z,2.00
2017-11-18T22:19:11.160Z,1.80
2017-11-18T22:21:41.054Z,1.87
2017-11-18T22:24:10.985Z,1.73
2017-11-18T22:26:40.856Z,2.00
2017-11-18T22:29:10.770Z,1.80
2017-11-18T22:31:40.679Z,3.20
2017-11-18T22:34:10.606Z,2.93
2017-11-18T22:36:40.516Z,3.00
2017-11-18T22:39:10.420Z,2.67
2017-11-18T22:41:40.359Z,2.40
2017-11-18T22:44:10.242Z,2.53
2017-11-18T22:46:40.146Z,1.90
2017-11-18T22:49:10.023Z,2.87
2017-11-18T22:51:39.921Z,2.93
2017-11-18T22:54:09.823Z,1.60
2017-11-18T22:56:39.832Z,2.90
2017-11-18T22:59:09.745Z,1.73
2017-11-18T23:01:39.659Z,0.73
2017-11-18T23:04:09.556Z,3.00
2017-11-18T23:06:39.469Z,3.00
2017-11-18T23:09:09.395Z,2.80
2017-11-18T23:11:39.275Z,3.63
2017-11-18T23:14:09.372Z,2.43
2017-11-18T23:16:39.257Z,2.73
2017-11-18T23:19:09.176Z,2.53
2017-11-18T23:21:39.031Z,3.00
2017-11-18T23:24:09.094Z,3.13
2017-11-18T23:26:38.985Z,2.47
2017-11-18T23:29:08.923Z,2.60
2017-11-18T23:31:38.853Z,2.13
2017-11-18T23:34:08.791Z,1.70
2017-11-18T23:36:38.681Z,2.30
2017-11-18T23:39:08.668Z,2.50
2017-11-18T23:41:38.547Z,2.90
2017-11-18T23:44:08.453Z,1.77
2017-11-18T23:46:38.329Z,3.43
2017-11-18T23:49:08.265Z,2.93
2017-11-18T23:51:38.159Z,3.17
2017-11-18T23:54:08.029Z,2.87
2017-11-18T23:56:37.921Z,5.00
2017-11-18T23:59:07.822Z,2.63
